Time;durP1;ratioP1;P1;durP2;ratioP2;P2;SDS_P1;SDS_P2;PMS_P1;PMS_P2;Temp;Humidity;BMP_temperature;BMP_pressure;BME280_temperature;BME280_humidity;BME280_pressure;Samples;Min_cycle;Max_cycle;Signal;HPM_P1;HPM_P2
2022/12/04 00:00:10;;;;;;;53.45;16.73;;;1.30;99.90;;;;;;5028569;28;20037;-66
2022/12/04 00:02:35;;;;;;;49.72;16.50;;;1.20;99.90;;;;;;5029778;28;20067;-66
2022/12/04 00:05:02;;;;;;;50.22;16.92;;;1.20;99.90;;;;;;5030445;28;20111;-66
2022/12/04 00:07:28;;;;;;;48.45;16.85;;;1.20;99.90;;;;;;5029672;28;20034;-66
2022/12/04 00:09:54;;;;;;;53.22;17.45;;;1.30;99.90;;;;;;5029925;28;20534;-66
2022/12/04 00:12:20;;;;;;;48.70;16.05;;;1.20;99.90;;;;;;5033966;28;20057;-67
2022/12/04 00:14:45;;;;;;;53.33;16.65;;;1.20;99.90;;;;;;5029828;28;20397;-66
2022/12/04 00:17:11;;;;;;;53.92;17.55;;;1.20;99.90;;;;;;5015759;28;20399;-67
2022/12/04 00:19:36;;;;;;;49.35;16.17;;;1.20;99.90;;;;;;5013605;28;20509;-66
2022/12/04 00:22:02;;;;;;;49.20;15.80;;;1.30;99.90;;;;;;5030379;28;20035;-65
2022/12/04 00:24:28;;;;;;;52.70;16.77;;;1.30;99.90;;;;;;5028521;28;20033;-67
2022/12/04 00:26:53;;;;;;;52.05;16.45;;;1.30;99.90;;;;;;5038799;28;20037;-66
2022/12/04 00:29:19;;;;;;;52.63;17.83;;;1.30;99.90;;;;;;5029884;28;20467;-68
2022/12/04 00:31:44;;;;;;;53.47;17.67;;;1.30;99.90;;;;;;5039317;28;20064;-66
2022/12/04 00:34:10;;;;;;;52.90;17.40;;;1.40;99.90;;;;;;5029778;28;20029;-66
2022/12/04 00:36:36;;;;;;;55.05;18.92;;;1.30;99.90;;;;;;5027072;28;20038;-66
2022/12/04 00:39:02;;;;;;;55.80;18.63;;;1.30;99.90;;;;;;5041839;28;20040;-66
2022/12/04 00:41:30;;;;;;;59.22;18.67;;;1.30;99.90;;;;;;5032370;28;20390;-67
2022/12/04 00:43:55;;;;;;;59.40;17.95;;;1.30;99.90;;;;;;5016757;28;20096;-67
2022/12/04 00:46:22;;;;;;;57.35;19.30;;;1.30;99.90;;;;;;5044310;28;20037;-66
2022/12/04 00:48:47;;;;;;;54.72;17.48;;;1.30;99.90;;;;;;5030008;28;20080;-66
2022/12/04 00:51:16;;;;;;;56.28;18.85;;;1.30;99.90;;;;;;5016689;28;20099;-67
2022/12/04 00:53:42;;;;;;;66.57;19.25;;;1.30;99.90;;;;;;5019085;28;20117;-64
2022/12/04 00:56:14;;;;;;;63.13;20.13;;;1.20;99.90;;;;;;5026322;28;20057;-66
2022/12/04 00:58:40;;;;;;;62.20;19.98;;;1.20;99.90;;;;;;5029616;28;20043;-66
2022/12/04 01:01:09;;;;;;;64.53;19.92;;;1.20;99.90;;;;;;5035350;28;20053;-66
2022/12/04 01:03:35;;;;;;;63.38;21.25;;;1.20;99.90;;;;;;5009737;28;20025;-66
2022/12/04 01:06:04;;;;;;;68.28;21.23;;;1.20;99.90;;;;;;5015371;28;20030;-67
2022/12/04 01:08:30;;;;;;;60.55;19.40;;;1.20;99.90;;;;;;5048562;28;20037;-66
2022/12/04 01:10:56;;;;;;;64.53;21.65;;;1.20;99.90;;;;;;5039487;28;20070;-65
2022/12/04 01:13:23;;;;;;;61.35;19.77;;;1.20;99.90;;;;;;5043644;28;20056;-65
2022/12/04 01:15:48;;;;;;;70.28;20.13;;;1.20;99.90;;;;;;5042819;28;20029;-65
2022/12/04 01:18:15;;;;;;;68.07;21.98;;;1.20;99.90;;;;;;5023815;28;20623;-67
2022/12/04 01:20:47;;;;;;;62.28;20.40;;;1.30;99.90;;;;;;5026419;28;20034;-66
2022/12/04 01:23:13;;;;;;;57.25;18.80;;;1.40;99.90;;;;;;5008904;28;20033;-66
2022/12/04 01:25:39;;;;;;;60.67;19.58;;;1.40;99.90;;;;;;5017589;28;20095;-66
2022/12/04 01:28:04;;;;;;;65.40;20.73;;;1.40;99.90;;;;;;5024222;28;20418;-67
2022/12/04 01:30:30;;;;;;;60.10;20.35;;;1.40;99.90;;;;;;5018239;28;20109;-66
2022/12/04 01:32:55;;;;;;;59.40;20.80;;;1.40;99.90;;;;;;5024823;28;20037;-68
2022/12/04 01:35:21;;;;;;;62.35;20.42;;;1.40;99.90;;;;;;5018587;28;20042;-66
2022/12/04 01:37:46;;;;;;;60.53;20.35;;;1.40;99.90;;;;;;5021252;28;20033;-66
2022/12/04 01:40:14;;;;;;;60.45;19.30;;;1.40;99.90;;;;;;5012918;28;20034;-66
2022/12/04 01:42:40;;;;;;;64.80;18.95;;;1.40;99.90;;;;;;5023674;28;20048;-66
2022/12/04 01:45:38;;;;;;;61.40;20.20;;;1.50;99.90;;;;;;5026737;28;20406;-65
2022/12/04 01:48:30;;;;;;;64.88;19.95;;;1.50;99.90;;;;;;5026231;28;20120;-67
2022/12/04 01:51:05;;;;;;;54.45;18.95;;;1.50;99.90;;;;;;5025323;28;20107;-68
2022/12/04 01:53:32;;;;;;;62.72;19.67;;;1.50;99.90;;;;;;5025348;28;20051;-66
2022/12/04 01:55:58;;;;;;;60.85;19.77;;;1.50;99.90;;;;;;5038588;28;20585;-68
2022/12/04 01:58:28;;;;;;;54.40;18.70;;;1.50;99.90;;;;;;5034815;28;20120;-67
2022/12/04 02:00:57;;;;;;;47.08;14.13;;;1.50;99.90;;;;;;5019655;28;20427;-68
2022/12/04 02:03:23;;;;;;;53.38;17.90;;;1.50;99.90;;;;;;5027273;28;20124;-67
2022/12/04 02:05:49;;;;;;;60.58;18.63;;;1.40;99.90;;;;;;5018788;28;20122;-66
2022/12/04 02:08:15;;;;;;;59.67;19.40;;;1.40;99.90;;;;;;5023027;28;20048;-66
2022/12/04 02:11:02;;;;;;;59.80;20.27;;;1.40;99.90;;;;;;5024687;28;20030;-66
2022/12/04 02:13:52;;;;;;;60.10;19.65;;;1.40;99.90;;;;;;5052602;28;20064;-66
2022/12/04 02:16:35;;;;;;;60.78;20.70;;;1.40;99.90;;;;;;5007691;28;20789;-68
2022/12/04 02:19:28;;;;;;;61.92;19.52;;;1.40;99.90;;;;;;5026377;28;20048;-67
2022/12/04 02:21:56;;;;;;;56.40;18.25;;;1.40;99.90;;;;;;5024195;28;20040;-66
2022/12/04 02:24:34;;;;;;;55.42;18.80;;;1.40;99.90;;;;;;5050775;28;20029;-66
2022/12/04 02:27:14;;;;;;;56.55;19.15;;;1.40;99.90;;;;;;5025986;28;20036;-67
2022/12/04 02:29:59;;;;;;;55.25;18.85;;;1.40;99.90;;;;;;5031459;28;20038;-66
2022/12/04 02:32:44;;;;;;;54.45;17.85;;;1.40;99.90;;;;;;5035505;28;20131;-66
2022/12/04 02:35:24;;;;;;;54.50;18.33;;;1.40;99.90;;;;;;5026290;28;20155;-66
2022/12/04 02:37:59;;;;;;;40.30;12.98;;;1.40;99.90;;;;;;5028663;28;20021;-66
2022/12/04 02:40:30;;;;;;;55.95;18.20;;;1.40;99.90;;;;;;5037063;28;20041;-67
2022/12/04 02:43:05;;;;;;;50.38;18.85;;;1.40;99.90;;;;;;5023510;28;20058;-65
2022/12/04 02:45:36;;;;;;;57.15;18.13;;;1.40;99.90;;;;;;5029952;28;20057;-66
2022/12/04 02:48:04;;;;;;;57.88;17.75;;;1.40;99.90;;;;;;5038180;28;20041;-66
2022/12/04 02:50:34;;;;;;;54.67;18.33;;;1.40;99.90;;;;;;5030597;28;20044;-66
2022/12/04 02:53:07;;;;;;;61.20;18.00;;;1.30;99.90;;;;;;5028717;28;20030;-66
2022/12/04 02:55:46;;;;;;;53.28;16.67;;;1.30;99.90;;;;;;5031105;28;20056;-66
2022/12/04 02:58:18;;;;;;;54.08;18.08;;;1.30;99.90;;;;;;5019487;28;20038;-67
2022/12/04 03:00:45;;;;;;;53.55;18.02;;;1.30;99.90;;;;;;5024360;28;20060;-65
2022/12/04 03:03:24;;;;;;;51.97;17.40;;;1.40;99.90;;;;;;5029766;28;20036;-66
2022/12/04 03:06:01;;;;;;;49.10;16.48;;;1.30;99.90;;;;;;5031699;28;20060;-65
2022/12/04 03:08:38;;;;;;;51.00;16.73;;;1.40;99.90;;;;;;5019827;28;20045;-65
2022/12/04 03:11:04;;;;;;;49.88;16.85;;;1.40;99.90;;;;;;5010335;28;20486;-68
2022/12/04 03:13:43;;;;;;;50.35;16.83;;;1.40;99.90;;;;;;5035372;28;20088;-66
2022/12/04 03:16:19;;;;;;;47.30;15.75;;;1.40;99.90;;;;;;5016968;28;20051;-66
2022/12/04 03:18:55;;;;;;;50.25;17.40;;;1.30;99.90;;;;;;5051643;28;20028;-66
2022/12/04 03:21:27;;;;;;;48.20;16.13;;;1.30;99.90;;;;;;5027346;28;20029;-67
2022/12/04 03:24:15;;;;;;;45.72;15.82;;;1.30;99.90;;;;;;5048519;28;20420;-64
2022/12/04 03:26:54;;;;;;;51.83;16.77;;;1.30;99.90;;;;;;5024472;28;20041;-65
2022/12/04 03:29:40;;;;;;;50.92;16.42;;;1.30;99.90;;;;;;5045991;28;20030;-67
2022/12/04 03:32:11;;;;;;;53.38;17.05;;;1.30;99.90;;;;;;5037873;28;20026;-66
2022/12/04 03:34:44;;;;;;;52.63;18.05;;;1.30;99.90;;;;;;5030142;28;20029;-66
2022/12/04 03:37:15;;;;;;;55.10;18.27;;;1.30;99.90;;;;;;5021800;28;20040;-66
2022/12/04 03:40:06;;;;;;;50.90;18.20;;;1.30;99.90;;;;;;5024643;28;20033;-66
2022/12/04 03:42:44;;;;;;;55.28;17.77;;;1.30;99.90;;;;;;5022035;28;20501;-66
2022/12/04 03:45:22;;;;;;;51.47;17.40;;;1.30;99.90;;;;;;5013092;28;20083;-66
2022/12/04 03:48:06;;;;;;;55.08;18.00;;;1.30;99.90;;;;;;5048136;28;20048;-67
2022/12/04 03:50:46;;;;;;;54.75;17.70;;;1.40;99.90;;;;;;5029127;28;20146;-66
2022/12/04 03:53:21;;;;;;;49.70;16.83;;;1.40;99.90;;;;;;5027971;28;20029;-65
2022/12/04 03:56:02;;;;;;;57.20;19.15;;;1.40;99.90;;;;;;5029650;28;20042;-65
2022/12/04 03:58:31;;;;;;;51.10;17.25;;;1.30;99.90;;;;;;5027116;28;20249;-66
2022/12/04 04:01:00;;;;;;;50.53;17.55;;;1.30;99.90;;;;;;5011080;28;20029;-66
2022/12/04 04:03:30;;;;;;;55.10;19.17;;;1.30;99.90;;;;;;5024884;28;20136;-65
2022/12/04 04:06:04;;;;;;;54.13;17.58;;;1.30;99.90;;;;;;5015203;28;20084;-64
2022/12/04 04:08:36;;;;;;;51.35;17.60;;;1.30;99.90;;;;;;5021160;28;20042;-67
2022/12/04 04:11:06;;;;;;;51.08;17.65;;;1.30;99.90;;;;;;5027548;28;20053;-67
2022/12/04 04:25:12;;;;;;;45.70;15.88;;;1.40;99.90;;;;;;5027604;28;20028;-67
2022/12/04 04:27:38;;;;;;;44.58;15.82;;;1.50;99.90;;;;;;5024625;28;20474;-66
2022/12/04 04:30:05;;;;;;;47.60;16.58;;;1.50;99.90;;;;;;5047333;28;20048;-68
2022/12/04 04:32:34;;;;;;;44.38;15.63;;;1.50;99.90;;;;;;5027520;28;20037;-66
2022/12/04 04:35:06;;;;;;;41.20;15.57;;;1.50;99.90;;;;;;5033236;28;20385;-66
2022/12/04 04:37:47;;;;;;;44.75;16.08;;;1.50;99.90;;;;;;5037511;28;20040;-67
2022/12/04 04:40:22;;;;;;;44.50;15.85;;;1.50;99.90;;;;;;5025419;28;20038;-66
2022/12/04 04:43:02;;;;;;;45.75;16.20;;;1.50;99.90;;;;;;5017816;28;20053;-65
2022/12/04 04:45:34;;;;;;;44.97;15.63;;;1.50;99.90;;;;;;5019754;28;20168;-64
2022/12/04 04:48:06;;;;;;;47.38;15.90;;;1.50;99.90;;;;;;5027043;28;20047;-66
2022/12/04 04:50:34;;;;;;;46.05;16.13;;;1.50;99.90;;;;;;5040832;28;20494;-67
2022/12/04 04:53:04;;;;;;;47.28;16.55;;;1.40;99.90;;;;;;5029487;28;20029;-66
2022/12/04 04:55:34;;;;;;;47.67;16.20;;;1.40;99.90;;;;;;5027237;28;20033;-67
2022/12/04 04:58:11;;;;;;;45.70;15.98;;;1.50;99.90;;;;;;5046238;28;20033;-69
2022/12/04 05:00:38;;;;;;;47.55;16.90;;;1.50;99.90;;;;;;5013885;28;20390;-65
2022/12/04 05:03:04;;;;;;;42.55;14.90;;;1.50;99.90;;;;;;5009733;28;20034;-66
2022/12/04 05:05:30;;;;;;;47.97;15.57;;;1.50;99.90;;;;;;5025600;28;20037;-67
2022/12/04 05:07:55;;;;;;;48.20;17.13;;;1.50;99.90;;;;;;5028426;28;20384;-64
2022/12/04 05:10:21;;;;;;;45.58;16.23;;;1.50;99.90;;;;;;5010109;28;20038;-66
2022/12/04 05:12:47;;;;;;;52.08;17.00;;;1.50;99.90;;;;;;5041084;28;20063;-66
2022/12/04 05:15:13;;;;;;;49.67;17.60;;;1.50;99.90;;;;;;5029535;28;20041;-65
2022/12/04 05:17:38;;;;;;;48.40;17.23;;;1.60;99.90;;;;;;5028164;28;20463;-66
2022/12/04 05:20:05;;;;;;;47.22;17.17;;;1.60;99.90;;;;;;5012973;28;20124;-66
2022/12/04 05:22:35;;;;;;;45.60;16.65;;;1.60;99.90;;;;;;5034692;28;20033;-64
2022/12/04 05:25:01;;;;;;;45.20;16.58;;;1.60;99.90;;;;;;5038601;28;20029;-66
2022/12/04 05:27:29;;;;;;;45.05;16.67;;;1.60;99.90;;;;;;5027004;28;20033;-66
2022/12/04 05:29:56;;;;;;;46.10;15.93;;;1.60;99.90;;;;;;5026402;28;20049;-65
2022/12/04 05:32:23;;;;;;;47.65;16.60;;;1.60;99.90;;;;;;5026715;28;20037;-67
2022/12/04 05:34:50;;;;;;;43.67;15.93;;;1.60;99.90;;;;;;5028232;28;20037;-66
2022/12/04 05:37:16;;;;;;;48.63;16.88;;;1.60;99.90;;;;;;5025590;28;20041;-67
2022/12/04 05:39:42;;;;;;;44.88;16.67;;;1.60;99.90;;;;;;5014924;28;20038;-66
2022/12/04 05:42:08;;;;;;;48.92;17.55;;;1.60;99.90;;;;;;5008799;28;20053;-68
2022/12/04 05:44:33;;;;;;;44.92;16.58;;;1.60;99.90;;;;;;5038094;28;20124;-65
2022/12/04 05:46:59;;;;;;;52.70;17.83;;;1.60;99.90;;;;;;5040308;28;20474;-67
2022/12/04 05:49:27;;;;;;;46.20;15.88;;;1.60;99.90;;;;;;5038218;28;20037;-66
2022/12/04 05:51:53;;;;;;;46.40;15.98;;;1.60;99.90;;;;;;5045742;28;20052;-66
2022/12/04 05:54:18;;;;;;;47.90;15.88;;;1.50;99.90;;;;;;5029351;28;20063;-66
2022/12/04 05:56:44;;;;;;;43.28;15.10;;;1.50;99.90;;;;;;5026778;28;20116;-68
2022/12/04 05:59:10;;;;;;;42.00;15.25;;;1.50;99.90;;;;;;5035280;28;20040;-68
2022/12/04 06:01:36;;;;;;;48.90;16.25;;;1.50;99.90;;;;;;5037974;28;20036;-66
2022/12/04 06:04:01;;;;;;;41.10;15.15;;;1.50;99.90;;;;;;5027912;28;20041;-66
2022/12/04 06:06:27;;;;;;;42.65;15.60;;;1.50;99.90;;;;;;5027382;28;20029;-67
2022/12/04 06:08:55;;;;;;;43.75;16.13;;;1.50;99.90;;;;;;5030103;28;20033;-66
2022/12/04 06:11:25;;;;;;;44.10;14.95;;;1.50;99.90;;;;;;5047902;28;20021;-66
2022/12/04 06:13:51;;;;;;;45.15;15.75;;;1.50;99.90;;;;;;5045630;28;20119;-67
2022/12/04 06:16:19;;;;;;;41.50;15.07;;;1.50;99.90;;;;;;5018249;28;20539;-67
2022/12/04 06:18:49;;;;;;;42.17;14.52;;;1.40;99.90;;;;;;5014771;28;20025;-67
2022/12/04 06:21:15;;;;;;;32.13;10.82;;;1.50;99.90;;;;;;5016384;28;20037;-67
2022/12/04 06:23:41;;;;;;;38.83;14.50;;;1.40;99.90;;;;;;5013533;28;20034;-66
2022/12/04 06:26:07;;;;;;;40.78;13.65;;;1.40;99.90;;;;;;5044385;28;20021;-66
2022/12/04 06:28:34;;;;;;;44.13;14.32;;;1.50;99.90;;;;;;5042010;28;20044;-67
2022/12/04 06:31:06;;;;;;;41.30;13.95;;;1.40;99.90;;;;;;5025246;28;20035;-67
2022/12/04 06:33:32;;;;;;;42.10;14.30;;;1.40;99.90;;;;;;5024634;28;20087;-66
2022/12/04 06:36:04;;;;;;;49.00;14.65;;;1.40;99.90;;;;;;5008782;28;20038;-67
2022/12/04 06:38:29;;;;;;;40.25;13.40;;;1.30;99.90;;;;;;5028987;28;20091;-67
2022/12/04 06:40:55;;;;;;;44.05;14.73;;;1.40;99.90;;;;;;5030341;28;20025;-66
2022/12/04 06:43:22;;;;;;;38.90;12.93;;;1.30;99.90;;;;;;5032276;28;20041;-66
2022/12/04 06:45:47;;;;;;;35.90;13.27;;;1.30;99.90;;;;;;5027268;28;20021;-65
2022/12/04 06:48:13;;;;;;;37.35;12.70;;;1.30;99.90;;;;;;5028125;28;20038;-67
2022/12/04 06:50:38;;;;;;;38.28;13.23;;;1.30;99.90;;;;;;5012375;28;20686;-67
2022/12/04 06:53:04;;;;;;;40.72;12.20;;;1.30;99.90;;;;;;5013336;28;20478;-66
2022/12/04 06:55:30;;;;;;;39.70;13.25;;;1.30;99.90;;;;;;5027891;28;20088;-66
2022/12/04 06:57:55;;;;;;;37.53;12.68;;;1.30;99.90;;;;;;5033594;28;20030;-65
2022/12/04 07:00:21;;;;;;;43.50;13.95;;;1.30;99.90;;;;;;5027588;28;20124;-67
2022/12/04 07:02:47;;;;;;;47.55;14.55;;;1.40;99.90;;;;;;5026660;28;20099;-66
2022/12/04 07:05:13;;;;;;;42.42;14.40;;;1.40;99.90;;;;;;5027423;28;20060;-67
2022/12/04 07:07:39;;;;;;;43.95;14.48;;;1.40;99.90;;;;;;5028614;28;20124;-67
2022/12/04 07:10:05;;;;;;;42.67;14.07;;;1.40;99.90;;;;;;5009872;28;20116;-67
2022/12/04 07:12:31;;;;;;;41.42;15.35;;;1.40;99.90;;;;;;5011003;28;20077;-66
2022/12/04 07:14:57;;;;;;;45.42;14.55;;;1.40;99.90;;;;;;5019128;28;20057;-68
2022/12/04 07:17:22;;;;;;;45.42;15.43;;;1.40;99.90;;;;;;5030814;28;20471;-66
2022/12/04 07:19:48;;;;;;;52.60;18.25;;;1.40;99.90;;;;;;5019583;28;20112;-67
2022/12/04 07:22:13;;;;;;;58.47;20.92;;;1.40;99.90;;;;;;5020248;28;20075;-68
2022/12/04 07:24:39;;;;;;;54.30;19.13;;;1.30;99.90;;;;;;5028337;28;20064;-66
2022/12/04 07:27:05;;;;;;;48.95;16.65;;;1.30;99.90;;;;;;5027379;28;20091;-67
2022/12/04 07:29:31;;;;;;;48.72;16.27;;;1.30;99.90;;;;;;5025636;28;20600;-67
2022/12/04 07:31:56;;;;;;;51.33;17.05;;;1.40;99.90;;;;;;5038073;28;20063;-65
2022/12/04 07:34:22;;;;;;;53.42;18.80;;;1.40;99.90;;;;;;5039960;28;20099;-65
2022/12/04 07:36:48;;;;;;;56.47;19.58;;;1.40;99.90;;;;;;5034200;28;20028;-68
2022/12/04 07:39:13;;;;;;;56.00;19.75;;;1.50;99.90;;;;;;5031043;28;20116;-69
2022/12/04 07:41:39;;;;;;;53.38;18.52;;;1.50;99.90;;;;;;5037775;28;20071;-67
2022/12/04 07:44:05;;;;;;;46.72;15.50;;;1.50;99.90;;;;;;5030842;28;20038;-67
2022/12/04 07:46:30;;;;;;;45.53;15.35;;;1.50;99.90;;;;;;5035773;28;20034;-67
2022/12/04 07:48:58;;;;;;;48.83;16.40;;;1.50;99.90;;;;;;5038568;28;20033;-67
2022/12/04 07:51:28;;;;;;;48.15;17.08;;;1.50;99.90;;;;;;5031588;28;20037;-67
2022/12/04 07:53:57;;;;;;;51.50;17.10;;;1.50;99.90;;;;;;5029825;28;20091;-67
2022/12/04 07:56:22;;;;;;;44.55;16.80;;;1.50;99.90;;;;;;5029895;28;20064;-67
2022/12/04 07:58:48;;;;;;;41.97;16.02;;;1.50;99.90;;;;;;5029318;28;20065;-68
2022/12/04 08:01:15;;;;;;;44.97;15.07;;;1.50;99.90;;;;;;5030283;28;20045;-66
2022/12/04 08:03:43;;;;;;;45.72;15.98;;;1.50;99.90;;;;;;5029918;28;20044;-66
2022/12/04 08:06:09;;;;;;;49.53;16.40;;;1.50;99.90;;;;;;5030088;28;20041;-67
2022/12/04 08:08:35;;;;;;;51.72;18.25;;;1.50;99.90;;;;;;5028533;28;20049;-67
2022/12/04 08:11:08;;;;;;;56.38;18.27;;;1.60;99.90;;;;;;5029580;28;20036;-65
2022/12/04 08:13:34;;;;;;;52.40;16.35;;;1.60;99.90;;;;;;5028257;28;20529;-68
2022/12/04 08:16:01;;;;;;;44.08;16.55;;;1.60;99.90;;;;;;5035210;28;20486;-66
2022/12/04 08:18:27;;;;;;;49.85;16.90;;;1.60;99.90;;;;;;5023770;28;20060;-67
2022/12/04 08:20:53;;;;;;;42.60;15.15;;;1.60;99.90;;;;;;5036076;28;20041;-67
2022/12/04 08:23:18;;;;;;;43.88;15.50;;;1.60;99.90;;;;;;5028428;28;20163;-68
2022/12/04 08:25:44;;;;;;;48.45;15.27;;;1.60;99.90;;;;;;5029094;28;20037;-67
2022/12/04 08:28:10;;;;;;;43.92;15.55;;;1.60;99.90;;;;;;5029397;28;20075;-67
2022/12/04 08:30:36;;;;;;;73.50;24.75;;;1.60;99.90;;;;;;5028282;28;20029;-68
2022/12/04 08:33:02;;;;;;;46.55;16.08;;;1.60;99.90;;;;;;5032359;28;20052;-67
2022/12/04 08:35:27;;;;;;;45.30;16.10;;;1.60;99.90;;;;;;5030159;28;20430;-67
2022/12/04 08:37:53;;;;;;;46.35;16.05;;;1.70;99.90;;;;;;5025055;28;20037;-66
2022/12/04 08:40:19;;;;;;;42.28;15.60;;;1.70;99.90;;;;;;5029134;28;20083;-68
2022/12/04 08:42:44;;;;;;;41.05;15.10;;;1.70;99.90;;;;;;5029243;28;20112;-67
2022/12/04 08:45:10;;;;;;;44.33;15.13;;;1.70;99.90;;;;;;5028050;28;20033;-66
2022/12/04 08:47:36;;;;;;;45.22;16.73;;;1.80;99.90;;;;;;5028324;28;20060;-66
2022/12/04 08:50:01;;;;;;;45.20;15.77;;;1.80;99.90;;;;;;5028879;28;20033;-67
2022/12/04 08:52:27;;;;;;;48.08;15.57;;;1.80;99.90;;;;;;5026177;28;20044;-67
2022/12/04 08:54:53;;;;;;;49.28;16.98;;;1.80;99.90;;;;;;5028317;28;20037;-67
2022/12/04 08:57:18;;;;;;;55.40;21.95;;;1.90;99.90;;;;;;5023592;28;20030;-67
2022/12/04 08:59:44;;;;;;;45.20;15.57;;;1.90;99.90;;;;;;5031546;28;20033;-66
2022/12/04 09:02:11;;;;;;;43.35;15.20;;;1.90;99.90;;;;;;5032201;28;20411;-65
2022/12/04 09:04:37;;;;;;;49.20;16.73;;;1.80;99.90;;;;;;5028415;28;20040;-65
2022/12/04 09:07:03;;;;;;;42.17;16.27;;;1.90;99.90;;;;;;5026474;28;20033;-67
2022/12/04 09:09:29;;;;;;;44.30;16.63;;;1.90;99.90;;;;;;5038306;28;20037;-65
2022/12/04 09:11:55;;;;;;;49.30;18.08;;;1.90;99.90;;;;;;5029359;28;20064;-68
2022/12/04 09:14:24;;;;;;;50.42;16.42;;;2.00;99.90;;;;;;5042565;28;20029;-67
2022/12/04 09:16:51;;;;;;;44.22;14.75;;;2.10;99.90;;;;;;5043347;28;20094;-66
2022/12/04 09:19:17;;;;;;;37.22;13.43;;;2.00;99.90;;;;;;5042388;28;20099;-66
2022/12/04 09:21:42;;;;;;;42.67;15.43;;;2.00;99.90;;;;;;5036093;28;20112;-66
2022/12/04 09:24:08;;;;;;;44.97;14.13;;;2.00;99.90;;;;;;5038308;28;20077;-66
2022/12/04 09:26:34;;;;;;;40.10;14.27;;;2.10;99.90;;;;;;5036180;28;20033;-66
2022/12/04 09:29:01;;;;;;;39.72;14.00;;;2.10;99.90;;;;;;5043602;28;20085;-66
2022/12/04 09:31:27;;;;;;;36.33;14.73;;;2.10;99.90;;;;;;5042629;28;20374;-65
2022/12/04 09:33:53;;;;;;;42.15;14.93;;;2.20;99.90;;;;;;5027855;28;20041;-66
2022/12/04 09:36:19;;;;;;;48.78;16.67;;;2.10;99.90;;;;;;5039440;28;20462;-66
2022/12/04 09:38:47;;;;;;;53.38;17.75;;;2.10;99.90;;;;;;5038367;28;20033;-66
2022/12/04 09:41:21;;;;;;;49.63;16.10;;;2.10;99.90;;;;;;5039831;28;20041;-66
2022/12/04 09:43:56;;;;;;;40.90;16.02;;;2.10;99.90;;;;;;5047470;28;20030;-66
2022/12/04 09:47:02;;;;;;;49.72;18.80;;;2.20;99.90;;;;;;5045015;28;20033;-68
2022/12/04 09:49:56;;;;;;;46.05;17.73;;;2.20;99.90;;;;;;5012957;28;20049;-67
2022/12/04 09:52:32;;;;;;;44.53;17.80;;;2.20;99.90;;;;;;5039619;28;20098;-67
2022/12/04 09:55:01;;;;;;;44.78;17.88;;;2.20;99.90;;;;;;5028372;28;20041;-66
2022/12/04 09:57:57;;;;;;;48.90;17.35;;;2.20;99.90;;;;;;5038351;28;20021;-66
2022/12/04 10:00:23;;;;;;;45.53;16.92;;;2.20;99.90;;;;;;5026130;28;20095;-66
2022/12/04 10:02:55;;;;;;;49.83;18.02;;;2.20;99.90;;;;;;5035544;28;20066;-66
2022/12/04 10:05:51;;;;;;;51.42;18.65;;;2.20;99.90;;;;;;5036251;28;20355;-65
2022/12/04 10:08:29;;;;;;;49.03;17.48;;;2.10;99.90;;;;;;5029241;28;20040;-64
2022/12/04 10:11:31;;;;;;;65.63;23.67;;;2.20;99.90;;;;;;5042627;28;20493;-66
2022/12/04 10:14:25;;;;;;;48.15;18.25;;;2.10;99.90;;;;;;5029318;28;20053;-66
2022/12/04 10:17:08;;;;;;;50.10;18.60;;;2.10;99.90;;;;;;5025694;28;20394;-66
2022/12/04 10:19:46;;;;;;;55.88;20.45;;;2.10;99.90;;;;;;5030265;28;20053;-65
2022/12/04 10:22:45;;;;;;;53.92;19.80;;;2.10;99.90;;;;;;5026372;28;20040;-67
2022/12/04 10:25:17;;;;;;;45.47;15.90;;;2.20;99.90;;;;;;5029163;28;20171;-66
2022/12/04 10:27:42;;;;;;;47.13;16.88;;;2.10;99.90;;;;;;5030237;28;20049;-68
2022/12/04 10:30:29;;;;;;;44.38;16.15;;;2.20;99.90;;;;;;5030091;28;20033;-66
2022/12/04 10:33:10;;;;;;;40.13;14.98;;;2.20;99.90;;;;;;5029593;28;20092;-66
2022/12/04 10:35:38;;;;;;;37.78;14.60;;;2.20;99.90;;;;;;5027790;28;20103;-65
2022/12/04 10:38:25;;;;;;;52.78;17.90;;;2.20;99.90;;;;;;5031286;28;20120;-67
2022/12/04 10:40:59;;;;;;;38.25;13.10;;;2.30;99.90;;;;;;5032156;28;20379;-67
2022/12/04 10:43:41;;;;;;;41.25;13.95;;;2.20;99.90;;;;;;5031523;28;20141;-68
2022/12/04 10:46:28;;;;;;;43.50;14.25;;;2.20;99.90;;;;;;5031751;28;20383;-67
2022/12/04 10:49:08;;;;;;;39.85;14.57;;;2.20;99.90;;;;;;5035944;28;20041;-67
2022/12/04 10:51:41;;;;;;;43.55;14.32;;;2.20;99.90;;;;;;5034970;28;20033;-67
2022/12/04 10:54:20;;;;;;;43.97;16.02;;;2.30;99.90;;;;;;5035430;28;20021;-67
2022/12/04 10:56:58;;;;;;;53.10;17.08;;;2.30;99.90;;;;;;5031475;28;20018;-65
2022/12/04 10:59:25;;;;;;;44.53;16.65;;;2.30;99.90;;;;;;5034839;28;20641;-67
2022/12/04 11:02:01;;;;;;;47.33;17.08;;;2.30;99.90;;;;;;5033877;28;20168;-67
2022/12/04 11:04:30;;;;;;;43.33;17.52;;;2.40;99.90;;;;;;5033503;28;20504;-68
2022/12/04 11:07:13;;;;;;;41.97;17.08;;;2.40;99.90;;;;;;5035738;28;20413;-67
2022/12/04 11:09:40;;;;;;;42.05;15.88;;;2.40;99.90;;;;;;5035423;28;20079;-67
2022/12/04 11:12:18;;;;;;;45.72;16.73;;;2.50;99.90;;;;;;5034982;28;20037;-67
2022/12/04 11:14:44;;;;;;;36.95;13.10;;;2.60;99.90;;;;;;5030423;28;20045;-69
2022/12/04 11:17:16;;;;;;;35.88;13.07;;;2.60;99.90;;;;;;5034895;28;20033;-66
2022/12/04 11:19:42;;;;;;;37.95;13.30;;;2.60;99.90;;;;;;5032781;28;20041;-66
2022/12/04 11:22:17;;;;;;;38.38;14.35;;;2.50;99.90;;;;;;5039034;28;20367;-67
2022/12/04 11:24:50;;;;;;;36.75;12.95;;;2.50;99.90;;;;;;5031890;28;20037;-66
2022/12/04 11:27:24;;;;;;;38.92;13.75;;;2.50;99.90;;;;;;5031836;28;20466;-64
2022/12/04 11:29:50;;;;;;;37.22;13.15;;;2.50;99.90;;;;;;5042625;28;20068;-66
2022/12/04 11:32:19;;;;;;;35.67;13.60;;;2.60;99.90;;;;;;5035954;28;20066;-66
2022/12/04 11:34:45;;;;;;;38.28;14.32;;;2.50;99.90;;;;;;5030029;28;20037;-66
2022/12/04 11:37:29;;;;;;;35.67;12.95;;;2.60;99.90;;;;;;5028433;28;20029;-65
2022/12/04 11:39:55;;;;;;;36.22;13.35;;;2.50;99.90;;;;;;5028938;28;20033;-64
2022/12/04 11:42:26;;;;;;;43.33;14.15;;;2.50;99.90;;;;;;5030215;28;20756;-65
2022/12/04 11:45:24;;;;;;;37.95;13.85;;;2.60;99.90;;;;;;5029696;28;20029;-66
2022/12/04 11:47:58;;;;;;;39.20;14.90;;;2.50;99.90;;;;;;5009745;28;20061;-66
2022/12/04 11:50:44;;;;;;;46.92;17.45;;;2.50;99.90;;;;;;5031116;28;20167;-65
2022/12/04 11:53:42;;;;;;;36.42;13.55;;;2.50;99.90;;;;;;5029565;28;20037;-65
2022/12/04 11:56:27;;;;;;;47.63;16.92;;;2.50;99.90;;;;;;5038746;28;20032;-66
2022/12/04 11:59:02;;;;;;;36.80;13.23;;;2.60;99.90;;;;;;5027458;28;20037;-66
2022/12/04 12:01:39;;;;;;;35.17;13.63;;;2.60;99.90;;;;;;5029445;28;20744;-67
2022/12/04 12:05:03;;;;;;;33.63;14.07;;;2.60;99.90;;;;;;5022959;28;20064;-66
2022/12/04 12:07:52;;;;;;;33.63;13.02;;;2.60;99.90;;;;;;5007404;28;20088;-66
2022/12/04 12:10:55;;;;;;;30.40;12.10;;;2.60;99.90;;;;;;5007616;28;20042;-66
2022/12/04 12:13:57;;;;;;;35.08;12.35;;;2.50;99.90;;;;;;5005062;28;20061;-66
2022/12/04 12:16:46;;;;;;;36.60;13.50;;;2.60;99.90;;;;;;5001519;28;20034;-66
2022/12/04 12:19:34;;;;;;;38.15;13.45;;;2.60;99.90;;;;;;4994973;28;20044;-65
2022/12/04 12:22:18;;;;;;;31.90;13.00;;;2.70;99.90;;;;;;5008301;28;20053;-66
2022/12/04 12:25:12;;;;;;;34.90;12.90;;;2.70;99.90;;;;;;5009583;28;20050;-66
2022/12/04 12:27:55;;;;;;;33.40;12.27;;;2.80;99.90;;;;;;5004130;28;20034;-66
2022/12/04 12:30:23;;;;;;;35.25;13.63;;;2.80;99.90;;;;;;5000359;28;20049;-68
2022/12/04 12:33:12;;;;;;;36.80;12.85;;;2.90;99.90;;;;;;5007260;28;20037;-66
2022/12/04 12:35:46;;;;;;;38.70;15.00;;;2.90;99.90;;;;;;5002966;28;20039;-64
2022/12/04 12:38:26;;;;;;;39.50;14.82;;;3.00;99.90;;;;;;4996125;28;20061;-67
2022/12/04 12:41:04;;;;;;;41.53;16.00;;;3.00;99.90;;;;;;4983936;28;20610;-66
2022/12/04 12:43:55;;;;;;;46.20;18.10;;;3.00;99.90;;;;;;4988334;28;20034;-66
2022/12/04 12:46:35;;;;;;;40.80;15.73;;;3.00;99.90;;;;;;4989489;28;20088;-67
2022/12/04 12:49:24;;;;;;;51.28;20.23;;;3.00;99.90;;;;;;4984657;28;20049;-67
2022/12/04 12:52:19;;;;;;;45.85;18.10;;;3.10;99.90;;;;;;4983781;28;20029;-66
2022/12/04 12:54:54;;;;;;;34.80;13.82;;;3.10;99.90;;;;;;4987896;28;20044;-67
2022/12/04 12:57:38;;;;;;;38.40;14.15;;;3.10;99.90;;;;;;4985981;28;20069;-67
2022/12/04 13:00:19;;;;;;;47.03;18.60;;;3.10;99.90;;;;;;4986963;28;20550;-68
2022/12/04 13:03:05;;;;;;;41.25;17.13;;;3.00;99.90;;;;;;4988399;28;20030;-65
2022/12/04 13:05:38;;;;;;;42.00;16.42;;;3.00;99.90;;;;;;4990747;28;20026;-67
2022/12/04 13:08:24;;;;;;;43.03;15.10;;;3.00;99.90;;;;;;4988997;28;20542;-66
2022/12/04 13:11:04;;;;;;;38.95;14.60;;;3.10;99.90;;;;;;4980056;28;20038;-66